sensor_id;sensor_type;location;lat;lon;timestamp;P1;durP1;ratioP1;P2;durP2;ratioP2
36931;SDS011;22847;42.654;23.370;2023-12-20T00:02:14;27.90;;;13.38;;
36931;SDS011;22847;42.654;23.370;2023-12-20T00:04:39;30.40;;;14.45;;
36931;SDS011;22847;42.654;23.370;2023-12-20T00:07:05;34.08;;;15.73;;
36931;SDS011;22847;42.654;23.370;2023-12-20T00:09:30;30.17;;;15.60;;
36931;SDS011;22847;42.654;23.370;2023-12-20T00:11:56;32.72;;;16.88;;
36931;SDS011;22847;42.654;23.370;2023-12-20T00:14:22;34.40;;;15.75;;
36931;SDS011;22847;42.654;23.370;2023-12-20T00:16:47;31.95;;;16.40;;
36931;SDS011;22847;42.654;23.370;2023-12-20T00:19:13;34.72;;;18.00;;
36931;SDS011;22847;42.654;23.370;2023-12-20T00:21:38;40.47;;;19.38;;
36931;SDS011;22847;42.654;23.370;2023-12-20T00:24:04;39.08;;;18.95;;
36931;SDS011;22847;42.654;23.370;2023-12-20T00:26:30;41.35;;;19.60;;
36931;SDS011;22847;42.654;23.370;2023-12-20T00:28:55;42.58;;;20.92;;
36931;SDS011;22847;42.654;23.370;2023-12-20T00:31:20;42.83;;;20.67;;
36931;SDS011;22847;42.654;23.370;2023-12-20T00:33:46;42.20;;;18.92;;
36931;SDS011;22847;42.654;23.370;2023-12-20T00:36:12;35.88;;;16.33;;
36931;SDS011;22847;42.654;23.370;2023-12-20T00:38:37;32.80;;;15.88;;
36931;SDS011;22847;42.654;23.370;2023-12-20T00:41:03;39.58;;;17.90;;
36931;SDS011;22847;42.654;23.370;2023-12-20T00:43:28;35.38;;;16.90;;
36931;SDS011;22847;42.654;23.370;2023-12-20T00:45:54;35.65;;;16.88;;
36931;SDS011;22847;42.654;23.370;2023-12-20T00:48:20;32.13;;;15.88;;
36931;SDS011;22847;42.654;23.370;2023-12-20T00:50:46;34.30;;;17.00;;
36931;SDS011;22847;42.654;23.370;2023-12-20T00:53:12;30.83;;;15.45;;
36931;SDS011;22847;42.654;23.370;2023-12-20T00:55:37;24.42;;;12.35;;
36931;SDS011;22847;42.654;23.370;2023-12-20T00:58:03;26.40;;;12.75;;
36931;SDS011;22847;42.654;23.370;2023-12-20T01:00:28;25.65;;;13.90;;
36931;SDS011;22847;42.654;23.370;2023-12-20T01:02:54;30.13;;;14.77;;
36931;SDS011;22847;42.654;23.370;2023-12-20T01:05:19;17.08;;;9.82;;
36931;SDS011;22847;42.654;23.370;2023-12-20T01:07:48;17.50;;;8.80;;
36931;SDS011;22847;42.654;23.370;2023-12-20T01:10:13;18.45;;;8.80;;
36931;SDS011;22847;42.654;23.370;2023-12-20T01:12:39;14.65;;;8.20;;
36931;SDS011;22847;42.654;23.370;2023-12-20T01:15:04;16.35;;;7.85;;
36931;SDS011;22847;42.654;23.370;2023-12-20T01:17:30;15.68;;;8.07;;
36931;SDS011;22847;42.654;23.370;2023-12-20T01:19:56;18.85;;;9.52;;
36931;SDS011;22847;42.654;23.370;2023-12-20T01:22:21;30.27;;;13.93;;
36931;SDS011;22847;42.654;23.370;2023-12-20T01:24:47;18.67;;;9.43;;
36931;SDS011;22847;42.654;23.370;2023-12-20T01:27:12;21.85;;;10.57;;
36931;SDS011;22847;42.654;23.370;2023-12-20T01:29:37;22.98;;;11.10;;
36931;SDS011;22847;42.654;23.370;2023-12-20T01:32:03;18.50;;;10.15;;
36931;SDS011;22847;42.654;23.370;2023-12-20T01:34:29;21.98;;;10.70;;
36931;SDS011;22847;42.654;23.370;2023-12-20T01:36:54;17.15;;;10.10;;
36931;SDS011;22847;42.654;23.370;2023-12-20T01:39:20;13.45;;;7.63;;
36931;SDS011;22847;42.654;23.370;2023-12-20T01:41:45;18.23;;;8.85;;
36931;SDS011;22847;42.654;23.370;2023-12-20T01:44:11;14.13;;;8.30;;
36931;SDS011;22847;42.654;23.370;2023-12-20T01:46:36;15.60;;;8.63;;
36931;SDS011;22847;42.654;23.370;2023-12-20T01:49:02;16.23;;;7.63;;
36931;SDS011;22847;42.654;23.370;2023-12-20T01:51:28;14.98;;;8.15;;
36931;SDS011;22847;42.654;23.370;2023-12-20T01:53:54;12.48;;;7.43;;
36931;SDS011;22847;42.654;23.370;2023-12-20T01:56:22;14.32;;;8.15;;
36931;SDS011;22847;42.654;23.370;2023-12-20T01:58:48;13.48;;;7.72;;
36931;SDS011;22847;42.654;23.370;2023-12-20T02:01:13;16.00;;;9.55;;
36931;SDS011;22847;42.654;23.370;2023-12-20T02:03:40;15.50;;;8.85;;
36931;SDS011;22847;42.654;23.370;2023-12-20T02:06:06;17.52;;;8.68;;
36931;SDS011;22847;42.654;23.370;2023-12-20T02:08:33;15.52;;;8.25;;
36931;SDS011;22847;42.654;23.370;2023-12-20T02:10:59;14.88;;;8.52;;
36931;SDS011;22847;42.654;23.370;2023-12-20T02:13:25;17.75;;;9.20;;
36931;SDS011;22847;42.654;23.370;2023-12-20T02:15:51;15.70;;;8.82;;
36931;SDS011;22847;42.654;23.370;2023-12-20T02:18:17;17.73;;;9.35;;
36931;SDS011;22847;42.654;23.370;2023-12-20T02:20:43;19.20;;;9.82;;
36931;SDS011;22847;42.654;23.370;2023-12-20T02:23:08;19.27;;;10.48;;
36931;SDS011;22847;42.654;23.370;2023-12-20T02:25:34;17.85;;;9.65;;
36931;SDS011;22847;42.654;23.370;2023-12-20T02:27:59;17.02;;;9.00;;
36931;SDS011;22847;42.654;23.370;2023-12-20T02:30:26;17.13;;;8.63;;
36931;SDS011;22847;42.654;23.370;2023-12-20T02:32:52;18.08;;;10.35;;
36931;SDS011;22847;42.654;23.370;2023-12-20T02:35:18;15.50;;;9.15;;
36931;SDS011;22847;42.654;23.370;2023-12-20T02:37:43;26.55;;;13.27;;
36931;SDS011;22847;42.654;23.370;2023-12-20T02:40:09;20.75;;;12.15;;
36931;SDS011;22847;42.654;23.370;2023-12-20T02:42:35;18.20;;;9.57;;
36931;SDS011;22847;42.654;23.370;2023-12-20T02:45:01;19.95;;;10.10;;
36931;SDS011;22847;42.654;23.370;2023-12-20T02:47:26;19.25;;;9.52;;
36931;SDS011;22847;42.654;23.370;2023-12-20T02:49:52;31.50;;;14.15;;
36931;SDS011;22847;42.654;23.370;2023-12-20T02:52:18;27.55;;;12.88;;
36931;SDS011;22847;42.654;23.370;2023-12-20T02:54:43;30.55;;;15.35;;
36931;SDS011;22847;42.654;23.370;2023-12-20T02:57:09;30.35;;;15.88;;
36931;SDS011;22847;42.654;23.370;2023-12-20T02:59:34;38.35;;;17.60;;
36931;SDS011;22847;42.654;23.370;2023-12-20T03:02:00;38.72;;;17.85;;
36931;SDS011;22847;42.654;23.370;2023-12-20T03:04:25;62.90;;;30.40;;
36931;SDS011;22847;42.654;23.370;2023-12-20T03:06:51;92.90;;;45.95;;
36931;SDS011;22847;42.654;23.370;2023-12-20T03:09:16;103.70;;;51.70;;
36931;SDS011;22847;42.654;23.370;2023-12-20T03:11:42;129.85;;;61.78;;
36931;SDS011;22847;42.654;23.370;2023-12-20T03:14:07;137.45;;;67.43;;
36931;SDS011;22847;42.654;23.370;2023-12-20T03:16:33;140.23;;;68.15;;
36931;SDS011;22847;42.654;23.370;2023-12-20T03:18:58;151.90;;;73.38;;
36931;SDS011;22847;42.654;23.370;2023-12-20T03:21:24;146.18;;;69.38;;
36931;SDS011;22847;42.654;23.370;2023-12-20T03:23:49;139.80;;;67.35;;
36931;SDS011;22847;42.654;23.370;2023-12-20T03:26:14;145.80;;;68.68;;
36931;SDS011;22847;42.654;23.370;2023-12-20T03:28:40;134.13;;;67.97;;
36931;SDS011;22847;42.654;23.370;2023-12-20T03:31:06;143.27;;;63.58;;
36931;SDS011;22847;42.654;23.370;2023-12-20T03:33:31;131.20;;;61.15;;
36931;SDS011;22847;42.654;23.370;2023-12-20T03:35:57;117.43;;;57.40;;
36931;SDS011;22847;42.654;23.370;2023-12-20T03:38:22;127.03;;;59.40;;
36931;SDS011;22847;42.654;23.370;2023-12-20T03:40:50;122.90;;;58.65;;
36931;SDS011;22847;42.654;23.370;2023-12-20T03:43:16;130.07;;;61.53;;
36931;SDS011;22847;42.654;23.370;2023-12-20T03:45:42;116.63;;;58.00;;
36931;SDS011;22847;42.654;23.370;2023-12-20T03:48:07;119.95;;;56.83;;
36931;SDS011;22847;42.654;23.370;2023-12-20T03:50:33;104.57;;;50.78;;
36931;SDS011;22847;42.654;23.370;2023-12-20T03:52:59;105.78;;;50.65;;
36931;SDS011;22847;42.654;23.370;2023-12-20T03:55:25;102.75;;;48.95;;
36931;SDS011;22847;42.654;23.370;2023-12-20T03:57:50;86.72;;;43.33;;
36931;SDS011;22847;42.654;23.370;2023-12-20T04:00:15;105.32;;;48.97;;
36931;SDS011;22847;42.654;23.370;2023-12-20T04:02:41;89.75;;;41.97;;
36931;SDS011;22847;42.654;23.370;2023-12-20T04:05:07;82.80;;;41.25;;
36931;SDS011;22847;42.654;23.370;2023-12-20T04:07:34;100.72;;;46.35;;
36931;SDS011;22847;42.654;23.370;2023-12-20T04:10:01;70.50;;;35.65;;
36931;SDS011;22847;42.654;23.370;2023-12-20T04:12:28;55.55;;;27.10;;
36931;SDS011;22847;42.654;23.370;2023-12-20T04:14:54;51.92;;;25.25;;
36931;SDS011;22847;42.654;23.370;2023-12-20T04:17:20;59.33;;;27.15;;
36931;SDS011;22847;42.654;23.370;2023-12-20T04:19:47;58.42;;;29.33;;
36931;SDS011;22847;42.654;23.370;2023-12-20T04:22:13;56.60;;;28.23;;
36931;SDS011;22847;42.654;23.370;2023-12-20T04:24:38;57.78;;;27.17;;
36931;SDS011;22847;42.654;23.370;2023-12-20T04:27:04;49.38;;;24.77;;
36931;SDS011;22847;42.654;23.370;2023-12-20T04:29:29;55.33;;;28.15;;
36931;SDS011;22847;42.654;23.370;2023-12-20T04:31:55;32.53;;;16.85;;
36931;SDS011;22847;42.654;23.370;2023-12-20T04:34:22;33.20;;;16.70;;
36931;SDS011;22847;42.654;23.370;2023-12-20T04:36:48;33.80;;;17.40;;
36931;SDS011;22847;42.654;23.370;2023-12-20T04:39:13;37.35;;;17.38;;
36931;SDS011;22847;42.654;23.370;2023-12-20T04:41:40;30.98;;;15.98;;
36931;SDS011;22847;42.654;23.370;2023-12-20T04:44:05;26.05;;;13.50;;
36931;SDS011;22847;42.654;23.370;2023-12-20T04:46:31;27.02;;;12.15;;
36931;SDS011;22847;42.654;23.370;2023-12-20T04:48:58;28.73;;;13.68;;
36931;SDS011;22847;42.654;23.370;2023-12-20T04:51:23;24.50;;;11.60;;
36931;SDS011;22847;42.654;23.370;2023-12-20T04:53:49;28.55;;;12.40;;
36931;SDS011;22847;42.654;23.370;2023-12-20T04:56:14;19.05;;;9.43;;
36931;SDS011;22847;42.654;23.370;2023-12-20T04:58:40;32.63;;;15.73;;
36931;SDS011;22847;42.654;23.370;2023-12-20T05:01:05;32.47;;;15.32;;
36931;SDS011;22847;42.654;23.370;2023-12-20T05:03:32;42.67;;;20.65;;
36931;SDS011;22847;42.654;23.370;2023-12-20T05:05:58;50.83;;;24.05;;
36931;SDS011;22847;42.654;23.370;2023-12-20T05:08:23;63.88;;;31.25;;
36931;SDS011;22847;42.654;23.370;2023-12-20T05:10:50;68.53;;;33.25;;
36931;SDS011;22847;42.654;23.370;2023-12-20T05:13:16;68.05;;;30.55;;
36931;SDS011;22847;42.654;23.370;2023-12-20T05:15:42;66.57;;;30.92;;
36931;SDS011;22847;42.654;23.370;2023-12-20T05:18:07;82.18;;;39.08;;
36931;SDS011;22847;42.654;23.370;2023-12-20T05:20:33;90.20;;;40.45;;
36931;SDS011;22847;42.654;23.370;2023-12-20T05:22:58;103.30;;;46.33;;
36931;SDS011;22847;42.654;23.370;2023-12-20T05:25:23;97.22;;;46.33;;
36931;SDS011;22847;42.654;23.370;2023-12-20T05:27:49;100.72;;;45.63;;
36931;SDS011;22847;42.654;23.370;2023-12-20T05:30:15;105.80;;;48.58;;
36931;SDS011;22847;42.654;23.370;2023-12-20T05:32:40;112.43;;;52.15;;
36931;SDS011;22847;42.654;23.370;2023-12-20T05:35:06;119.70;;;52.80;;
36931;SDS011;22847;42.654;23.370;2023-12-20T05:37:32;112.97;;;53.22;;
36931;SDS011;22847;42.654;23.370;2023-12-20T05:39:57;111.32;;;49.15;;
36931;SDS011;22847;42.654;23.370;2023-12-20T05:42:23;117.70;;;49.40;;
36931;SDS011;22847;42.654;23.370;2023-12-20T05:44:48;108.03;;;47.33;;
36931;SDS011;22847;42.654;23.370;2023-12-20T05:47:14;109.25;;;45.50;;
36931;SDS011;22847;42.654;23.370;2023-12-20T05:49:39;103.13;;;45.42;;
36931;SDS011;22847;42.654;23.370;2023-12-20T05:52:05;125.68;;;47.03;;
36931;SDS011;22847;42.654;23.370;2023-12-20T05:54:30;106.30;;;44.30;;
36931;SDS011;22847;42.654;23.370;2023-12-20T05:56:56;100.68;;;43.10;;
36931;SDS011;22847;42.654;23.370;2023-12-20T05:59:21;109.93;;;45.40;;
36931;SDS011;22847;42.654;23.370;2023-12-20T06:01:47;107.10;;;45.65;;
36931;SDS011;22847;42.654;23.370;2023-12-20T06:04:12;97.85;;;45.03;;
36931;SDS011;22847;42.654;23.370;2023-12-20T06:06:41;104.25;;;44.40;;
36931;SDS011;22847;42.654;23.370;2023-12-20T06:09:07;123.85;;;36.55;;
36931;SDS011;22847;42.654;23.370;2023-12-20T06:11:33;97.90;;;29.52;;
36931;SDS011;22847;42.654;23.370;2023-12-20T06:13:58;73.40;;;33.50;;
36931;SDS011;22847;42.654;23.370;2023-12-20T06:16:24;91.50;;;38.70;;
36931;SDS011;22847;42.654;23.370;2023-12-20T06:18:49;104.78;;;42.95;;
36931;SDS011;22847;42.654;23.370;2023-12-20T06:21:15;119.18;;;44.95;;
36931;SDS011;22847;42.654;23.370;2023-12-20T06:23:41;113.85;;;45.92;;
36931;SDS011;22847;42.654;23.370;2023-12-20T06:26:07;108.32;;;43.58;;
36931;SDS011;22847;42.654;23.370;2023-12-20T06:28:32;113.97;;;41.47;;
36931;SDS011;22847;42.654;23.370;2023-12-20T06:30:58;91.00;;;40.42;;
36931;SDS011;22847;42.654;23.370;2023-12-20T06:33:24;92.53;;;40.97;;
36931;SDS011;22847;42.654;23.370;2023-12-20T06:35:49;95.82;;;39.63;;
36931;SDS011;22847;42.654;23.370;2023-12-20T06:38:15;104.80;;;44.25;;
36931;SDS011;22847;42.654;23.370;2023-12-20T06:40:40;108.10;;;44.70;;
36931;SDS011;22847;42.654;23.370;2023-12-20T06:43:07;84.93;;;36.95;;
36931;SDS011;22847;42.654;23.370;2023-12-20T06:45:33;65.38;;;30.98;;
36931;SDS011;22847;42.654;23.370;2023-12-20T06:47:58;77.18;;;32.88;;
36931;SDS011;22847;42.654;23.370;2023-12-20T06:50:24;83.40;;;33.47;;
36931;SDS011;22847;42.654;23.370;2023-12-20T06:52:49;81.22;;;34.92;;
36931;SDS011;22847;42.654;23.370;2023-12-20T06:55:15;98.63;;;42.22;;
36931;SDS011;22847;42.654;23.370;2023-12-20T06:57:40;89.60;;;39.33;;
36931;SDS011;22847;42.654;23.370;2023-12-20T07:00:06;84.60;;;41.55;;
36931;SDS011;22847;42.654;23.370;2023-12-20T07:02:33;103.22;;;43.15;;
36931;SDS011;22847;42.654;23.370;2023-12-20T07:04:59;90.90;;;41.00;;
36931;SDS011;22847;42.654;23.370;2023-12-20T07:07:25;89.50;;;43.78;;
36931;SDS011;22847;42.654;23.370;2023-12-20T07:09:51;91.55;;;41.13;;
36931;SDS011;22847;42.654;23.370;2023-12-20T07:12:16;78.68;;;39.17;;
36931;SDS011;22847;42.654;23.370;2023-12-20T07:14:44;80.93;;;38.70;;
36931;SDS011;22847;42.654;23.370;2023-12-20T07:17:10;82.40;;;40.20;;
36931;SDS011;22847;42.654;23.370;2023-12-20T07:19:38;78.43;;;40.22;;
36931;SDS011;22847;42.654;23.370;2023-12-20T07:22:05;75.72;;;39.55;;
36931;SDS011;22847;42.654;23.370;2023-12-20T07:24:31;73.20;;;37.92;;
36931;SDS011;22847;42.654;23.370;2023-12-20T07:26:57;64.50;;;36.17;;
36931;SDS011;22847;42.654;23.370;2023-12-20T07:29:23;62.08;;;36.17;;
36931;SDS011;22847;42.654;23.370;2023-12-20T07:31:48;68.10;;;35.35;;
36931;SDS011;22847;42.654;23.370;2023-12-20T07:34:14;59.42;;;34.92;;
36931;SDS011;22847;42.654;23.370;2023-12-20T07:36:39;65.53;;;37.28;;
36931;SDS011;22847;42.654;23.370;2023-12-20T07:39:05;66.65;;;36.88;;
36931;SDS011;22847;42.654;23.370;2023-12-20T07:41:30;66.45;;;38.63;;
36931;SDS011;22847;42.654;23.370;2023-12-20T07:43:55;61.80;;;35.47;;
36931;SDS011;22847;42.654;23.370;2023-12-20T07:46:21;60.85;;;33.17;;
36931;SDS011;22847;42.654;23.370;2023-12-20T07:48:50;67.20;;;35.30;;
36931;SDS011;22847;42.654;23.370;2023-12-20T07:51:15;70.65;;;34.53;;
36931;SDS011;22847;42.654;23.370;2023-12-20T07:53:41;69.43;;;35.47;;
36931;SDS011;22847;42.654;23.370;2023-12-20T07:56:16;75.43;;;36.20;;
36931;SDS011;22847;42.654;23.370;2023-12-20T07:58:42;73.13;;;35.03;;
36931;SDS011;22847;42.654;23.370;2023-12-20T08:01:08;73.95;;;35.03;;
36931;SDS011;22847;42.654;23.370;2023-12-20T08:03:34;72.53;;;36.70;;
36931;SDS011;22847;42.654;23.370;2023-12-20T08:06:00;72.85;;;35.53;;
36931;SDS011;22847;42.654;23.370;2023-12-20T08:08:27;72.07;;;34.30;;
36931;SDS011;22847;42.654;23.370;2023-12-20T08:10:52;50.13;;;25.65;;
36931;SDS011;22847;42.654;23.370;2023-12-20T08:13:17;50.45;;;24.27;;
36931;SDS011;22847;42.654;23.370;2023-12-20T08:15:43;66.03;;;29.85;;
36931;SDS011;22847;42.654;23.370;2023-12-20T08:18:08;80.85;;;36.20;;
36931;SDS011;22847;42.654;23.370;2023-12-20T08:20:34;80.10;;;38.35;;
36931;SDS011;22847;42.654;23.370;2023-12-20T08:22:59;91.47;;;41.15;;
36931;SDS011;22847;42.654;23.370;2023-12-20T08:25:25;97.20;;;41.50;;
36931;SDS011;22847;42.654;23.370;2023-12-20T08:27:51;98.03;;;42.60;;
36931;SDS011;22847;42.654;23.370;2023-12-20T08:30:16;93.55;;;43.00;;
36931;SDS011;22847;42.654;23.370;2023-12-20T08:32:45;71.80;;;33.05;;
36931;SDS011;22847;42.654;23.370;2023-12-20T08:35:11;65.78;;;31.77;;
36931;SDS011;22847;42.654;23.370;2023-12-20T08:37:36;73.18;;;31.23;;
36931;SDS011;22847;42.654;23.370;2023-12-20T08:40:02;64.97;;;30.75;;
36931;SDS011;22847;42.654;23.370;2023-12-20T08:42:27;67.22;;;29.08;;
36931;SDS011;22847;42.654;23.370;2023-12-20T08:44:56;64.70;;;28.65;;
36931;SDS011;22847;42.654;23.370;2023-12-20T08:47:24;69.32;;;30.30;;
36931;SDS011;22847;42.654;23.370;2023-12-20T08:49:50;77.43;;;34.15;;
36931;SDS011;22847;42.654;23.370;2023-12-20T08:52:15;81.05;;;35.08;;
36931;SDS011;22847;42.654;23.370;2023-12-20T08:54:41;97.85;;;40.35;;
36931;SDS011;22847;42.654;23.370;2023-12-20T08:57:06;89.95;;;39.15;;
36931;SDS011;22847;42.654;23.370;2023-12-20T08:59:32;111.55;;;44.65;;
36931;SDS011;22847;42.654;23.370;2023-12-20T09:01:58;103.82;;;43.70;;
36931;SDS011;22847;42.654;23.370;2023-12-20T09:04:24;103.82;;;44.88;;
36931;SDS011;22847;42.654;23.370;2023-12-20T09:06:50;116.60;;;44.38;;
36931;SDS011;22847;42.654;23.370;2023-12-20T09:09:15;114.07;;;44.35;;
36931;SDS011;22847;42.654;23.370;2023-12-20T09:11:41;119.63;;;45.83;;
36931;SDS011;22847;42.654;23.370;2023-12-20T09:14:07;106.88;;;47.00;;
36931;SDS011;22847;42.654;23.370;2023-12-20T09:16:32;111.30;;;46.45;;
36931;SDS011;22847;42.654;23.370;2023-12-20T09:18:58;115.72;;;46.05;;
36931;SDS011;22847;42.654;23.370;2023-12-20T09:21:23;127.00;;;48.20;;
36931;SDS011;22847;42.654;23.370;2023-12-20T09:23:49;117.70;;;48.30;;
36931;SDS011;22847;42.654;23.370;2023-12-20T09:26:14;114.47;;;47.75;;
36931;SDS011;22847;42.654;23.370;2023-12-20T09:28:40;132.77;;;48.35;;
36931;SDS011;22847;42.654;23.370;2023-12-20T09:31:06;112.28;;;46.22;;
36931;SDS011;22847;42.654;23.370;2023-12-20T09:33:32;122.53;;;47.38;;
36931;SDS011;22847;42.654;23.370;2023-12-20T09:35:58;104.82;;;42.05;;
36931;SDS011;22847;42.654;23.370;2023-12-20T09:38:23;101.15;;;39.03;;
36931;SDS011;22847;42.654;23.370;2023-12-20T09:40:49;94.88;;;38.00;;
36931;SDS011;22847;42.654;23.370;2023-12-20T09:43:15;103.03;;;38.88;;
36931;SDS011;22847;42.654;23.370;2023-12-20T09:45:45;101.85;;;40.33;;
36931;SDS011;22847;42.654;23.370;2023-12-20T09:48:12;98.20;;;41.55;;
36931;SDS011;22847;42.654;23.370;2023-12-20T09:50:39;91.28;;;39.13;;
36931;SDS011;22847;42.654;23.370;2023-12-20T09:53:05;91.07;;;38.95;;
36931;SDS011;22847;42.654;23.370;2023-12-20T09:55:36;99.43;;;39.65;;
36931;SDS011;22847;42.654;23.370;2023-12-20T09:58:01;93.50;;;39.97;;
36931;SDS011;22847;42.654;23.370;2023-12-20T10:00:27;98.03;;;40.63;;
36931;SDS011;22847;42.654;23.370;2023-12-20T10:02:56;96.85;;;40.05;;
36931;SDS011;22847;42.654;23.370;2023-12-20T10:05:27;108.07;;;44.20;;
36931;SDS011;22847;42.654;23.370;2023-12-20T10:07:53;100.55;;;43.03;;
36931;SDS011;22847;42.654;23.370;2023-12-20T10:10:19;105.35;;;42.70;;
36931;SDS011;22847;42.654;23.370;2023-12-20T10:13:01;112.05;;;44.03;;
36931;SDS011;22847;42.654;23.370;2023-12-20T10:15:28;105.67;;;43.97;;
36931;SDS011;22847;42.654;23.370;2023-12-20T10:17:54;100.97;;;40.78;;
36931;SDS011;22847;42.654;23.370;2023-12-20T10:20:23;104.18;;;44.40;;
36931;SDS011;22847;42.654;23.370;2023-12-20T10:22:49;106.53;;;43.85;;
36931;SDS011;22847;42.654;23.370;2023-12-20T10:25:14;111.38;;;46.38;;
36931;SDS011;22847;42.654;23.370;2023-12-20T10:27:40;107.35;;;46.00;;
36931;SDS011;22847;42.654;23.370;2023-12-20T10:30:05;105.88;;;45.08;;
36931;SDS011;22847;42.654;23.370;2023-12-20T10:32:31;113.80;;;46.35;;
36931;SDS011;22847;42.654;23.370;2023-12-20T10:34:57;102.15;;;44.75;;
36931;SDS011;22847;42.654;23.370;2023-12-20T10:37:24;98.20;;;43.15;;
36931;SDS011;22847;42.654;23.370;2023-12-20T10:39:50;98.88;;;43.63;;
36931;SDS011;22847;42.654;23.370;2023-12-20T10:42:21;86.35;;;43.08;;
36931;SDS011;22847;42.654;23.370;2023-12-20T10:44:55;98.50;;;44.50;;
36931;SDS011;22847;42.654;23.370;2023-12-20T10:47:21;95.13;;;44.80;;
36931;SDS011;22847;42.654;23.370;2023-12-20T10:49:49;89.88;;;43.40;;
36931;SDS011;22847;42.654;23.370;2023-12-20T10:52:17;99.45;;;45.53;;
36931;SDS011;22847;42.654;23.370;2023-12-20T10:54:42;97.13;;;43.33;;
36931;SDS011;22847;42.654;23.370;2023-12-20T10:57:09;90.82;;;42.00;;
36931;SDS011;22847;42.654;23.370;2023-12-20T10:59:38;102.45;;;43.97;;
36931;SDS011;22847;42.654;23.370;2023-12-20T11:02:04;94.18;;;43.35;;
36931;SDS011;22847;42.654;23.370;2023-12-20T11:04:38;93.05;;;43.38;;
36931;SDS011;22847;42.654;23.370;2023-12-20T11:10:09;95.57;;;41.85;;
36931;SDS011;22847;42.654;23.370;2023-12-20T11:15:24;96.05;;;43.88;;
36931;SDS011;22847;42.654;23.370;2023-12-20T11:17:56;94.05;;;41.33;;
36931;SDS011;22847;42.654;23.370;2023-12-20T11:20:24;94.07;;;41.55;;
36931;SDS011;22847;42.654;23.370;2023-12-20T11:22:59;95.03;;;42.05;;
36931;SDS011;22847;42.654;23.370;2023-12-20T11:25:25;101.85;;;44.20;;
36931;SDS011;22847;42.654;23.370;2023-12-20T11:28:08;98.32;;;42.78;;
36931;SDS011;22847;42.654;23.370;2023-12-20T11:31:08;94.93;;;42.92;;
36931;SDS011;22847;42.654;23.370;2023-12-20T11:33:31;91.18;;;41.20;;
36931;SDS011;22847;42.654;23.370;2023-12-20T11:36:01;97.20;;;41.85;;
36931;SDS011;22847;42.654;23.370;2023-12-20T11:38:28;90.85;;;42.50;;
36931;SDS011;22847;42.654;23.370;2023-12-20T11:41:02;109.40;;;42.90;;
36931;SDS011;22847;42.654;23.370;2023-12-20T11:46:07;96.90;;;43.97;;
36931;SDS011;22847;42.654;23.370;2023-12-20T11:48:38;93.05;;;43.53;;
36931;SDS011;22847;42.654;23.370;2023-12-20T11:51:10;87.28;;;40.70;;
36931;SDS011;22847;42.654;23.370;2023-12-20T11:53:37;84.57;;;41.67;;
36931;SDS011;22847;42.654;23.370;2023-12-20T11:56:03;89.30;;;41.58;;
36931;SDS011;22847;42.654;23.370;2023-12-20T11:58:31;86.82;;;41.65;;
36931;SDS011;22847;42.654;23.370;2023-12-20T12:00:57;97.22;;;41.83;;
36931;SDS011;22847;42.654;23.370;2023-12-20T12:03:23;87.65;;;39.55;;
36931;SDS011;22847;42.654;23.370;2023-12-20T12:05:49;87.78;;;39.10;;
36931;SDS011;22847;42.654;23.370;2023-12-20T12:08:14;79.93;;;38.90;;
36931;SDS011;22847;42.654;23.370;2023-12-20T12:10:40;74.85;;;37.85;;
36931;SDS011;22847;42.654;23.370;2023-12-20T12:13:06;79.20;;;40.08;;
36931;SDS011;22847;42.654;23.370;2023-12-20T12:15:32;76.35;;;37.67;;
36931;SDS011;22847;42.654;23.370;2023-12-20T12:17:57;75.00;;;38.25;;
36931;SDS011;22847;42.654;23.370;2023-12-20T12:20:24;84.97;;;38.25;;
36931;SDS011;22847;42.654;23.370;2023-12-20T12:23:11;71.78;;;37.55;;
36931;SDS011;22847;42.654;23.370;2023-12-20T12:25:35;69.47;;;36.45;;
36931;SDS011;22847;42.654;23.370;2023-12-20T12:28:04;74.53;;;36.38;;
36931;SDS011;22847;42.654;23.370;2023-12-20T12:30:30;78.10;;;37.55;;
36931;SDS011;22847;42.654;23.370;2023-12-20T12:32:56;73.32;;;37.00;;
36931;SDS011;22847;42.654;23.370;2023-12-20T12:35:22;78.15;;;37.97;;
36931;SDS011;22847;42.654;23.370;2023-12-20T12:37:48;74.55;;;36.83;;
36931;SDS011;22847;42.654;23.370;2023-12-20T12:40:14;83.05;;;39.65;;
36931;SDS011;22847;42.654;23.370;2023-12-20T12:42:41;75.28;;;39.05;;
36931;SDS011;22847;42.654;23.370;2023-12-20T12:45:08;72.68;;;35.88;;
36931;SDS011;22847;42.654;23.370;2023-12-20T12:47:34;73.88;;;35.70;;
36931;SDS011;22847;42.654;23.370;2023-12-20T12:50:00;72.30;;;36.30;;
36931;SDS011;22847;42.654;23.370;2023-12-20T12:52:26;82.25;;;38.17;;
36931;SDS011;22847;42.654;23.370;2023-12-20T12:54:52;74.90;;;36.10;;
36931;SDS011;22847;42.654;23.370;2023-12-20T12:57:18;69.15;;;35.13;;
36931;SDS011;22847;42.654;23.370;2023-12-20T12:59:45;86.60;;;38.88;;
36931;SDS011;22847;42.654;23.370;2023-12-20T13:02:12;91.68;;;40.90;;
36931;SDS011;22847;42.654;23.370;2023-12-20T13:04:39;89.78;;;40.33;;
36931;SDS011;22847;42.654;23.370;2023-12-20T13:07:07;95.82;;;41.67;;
36931;SDS011;22847;42.654;23.370;2023-12-20T13:09:36;91.78;;;42.33;;
36931;SDS011;22847;42.654;23.370;2023-12-20T13:12:01;115.85;;;43.15;;
36931;SDS011;22847;42.654;23.370;2023-12-20T13:14:29;102.57;;;45.35;;
36931;SDS011;22847;42.654;23.370;2023-12-20T13:16:57;108.32;;;44.78;;
36931;SDS011;22847;42.654;23.370;2023-12-20T13:19:22;97.03;;;42.95;;
36931;SDS011;22847;42.654;23.370;2023-12-20T13:21:48;95.63;;;42.15;;
36931;SDS011;22847;42.654;23.370;2023-12-20T13:24:13;93.22;;;42.10;;
36931;SDS011;22847;42.654;23.370;2023-12-20T13:26:39;96.97;;;41.95;;
36931;SDS011;22847;42.654;23.370;2023-12-20T13:29:04;98.65;;;43.13;;
36931;SDS011;22847;42.654;23.370;2023-12-20T13:31:30;97.20;;;43.53;;
36931;SDS011;22847;42.654;23.370;2023-12-20T13:33:56;95.93;;;43.30;;
36931;SDS011;22847;42.654;23.370;2023-12-20T13:36:21;94.20;;;42.30;;
36931;SDS011;22847;42.654;23.370;2023-12-20T13:38:48;107.30;;;41.60;;
36931;SDS011;22847;42.654;23.370;2023-12-20T13:41:13;105.38;;;43.25;;
36931;SDS011;22847;42.654;23.370;2023-12-20T13:43:39;97.07;;;41.30;;
36931;SDS011;22847;42.654;23.370;2023-12-20T13:46:04;98.78;;;42.45;;
36931;SDS011;22847;42.654;23.370;2023-12-20T13:48:29;97.55;;;44.20;;
36931;SDS011;22847;42.654;23.370;2023-12-20T13:50:55;103.45;;;44.65;;
36931;SDS011;22847;42.654;23.370;2023-12-20T13:53:20;96.72;;;43.00;;
36931;SDS011;22847;42.654;23.370;2023-12-20T13:55:46;96.80;;;41.10;;
36931;SDS011;22847;42.654;23.370;2023-12-20T13:58:11;93.03;;;40.83;;
36931;SDS011;22847;42.654;23.370;2023-12-20T14:00:37;100.15;;;44.03;;
36931;SDS011;22847;42.654;23.370;2023-12-20T14:03:03;108.53;;;45.20;;
36931;SDS011;22847;42.654;23.370;2023-12-20T14:05:29;112.35;;;46.50;;
36931;SDS011;22847;42.654;23.370;2023-12-20T14:07:55;109.60;;;44.33;;
36931;SDS011;22847;42.654;23.370;2023-12-20T14:10:24;112.93;;;46.53;;